createdAt,value
2023-06-22T00:02:35.893Z,12.13
2023-06-22T00:07:40.653Z,13.43
2023-06-22T00:12:44.128Z,11.23
2023-06-22T00:17:48.129Z,10.53
2023-06-22T00:22:52.858Z,10.53
2023-06-22T00:27:56.286Z,13.37
2023-06-22T00:32:59.729Z,12.77
2023-06-22T00:38:05.935Z,11.67
2023-06-22T00:43:09.278Z,12.70
2023-06-22T00:48:14.855Z,10.13
2023-06-22T00:53:19.613Z,11.07
2023-06-22T00:58:23.727Z,10.97
2023-06-22T01:03:27.186Z,10.83
2023-06-22T01:08:36.423Z,11.27
2023-06-22T01:13:43.311Z,11.60
2023-06-22T01:18:47.117Z,13.67
2023-06-22T01:24:00.189Z,13.00
2023-06-22T01:29:06.201Z,12.07
2023-06-22T01:34:10.696Z,13.93
2023-06-22T01:39:14.162Z,13.90
2023-06-22T01:44:20.150Z,14.43
2023-06-22T01:49:23.820Z,14.30
2023-06-22T01:54:27.149Z,12.60
2023-06-22T01:59:35.061Z,15.50
2023-06-22T02:04:40.226Z,14.47
2023-06-22T02:09:45.427Z,15.80
2023-06-22T02:14:50.549Z,16.43
2023-06-22T02:19:53.730Z,17.77
2023-06-22T02:24:57.177Z,16.43
2023-06-22T02:30:03.589Z,23.67
2023-06-22T02:35:08.588Z,16.03
2023-06-22T02:40:12.092Z,19.70
2023-06-22T02:45:16.733Z,20.33
2023-06-22T02:50:20.546Z,22.20
2023-06-22T02:55:24.746Z,16.67
2023-06-22T03:00:34.271Z,18.87
2023-06-22T03:05:37.682Z,20.73
2023-06-22T03:10:41.651Z,17.17
2023-06-22T03:15:47.083Z,18.80
2023-06-22T03:20:50.601Z,17.07
2023-06-22T03:25:56.802Z,16.90
2023-06-22T03:31:01.493Z,17.70
2023-06-22T03:36:07.626Z,21.23
2023-06-22T03:41:10.953Z,18.67
2023-06-22T03:46:16.145Z,17.63
2023-06-22T03:51:20.291Z,20.87
2023-06-22T03:56:23.726Z,19.50
2023-06-22T04:01:28.539Z,21.43
2023-06-22T04:06:32.051Z,17.47
2023-06-22T04:11:35.388Z,17.37
2023-06-22T04:16:40.140Z,19.63
2023-06-22T04:21:43.534Z,17.43
2023-06-22T04:26:48.162Z,17.27
2023-06-22T04:31:52.978Z,15.77
2023-06-22T04:36:56.296Z,14.90
2023-06-22T04:42:01.622Z,12.97
2023-06-22T04:47:09.673Z,12.93
2023-06-22T04:52:14.455Z,13.33
2023-06-22T04:57:17.868Z,15.10
2023-06-22T05:02:23.025Z,15.60
2023-06-22T05:07:26.761Z,12.40
2023-06-22T05:12:30.748Z,17.27
2023-06-22T05:17:35.761Z,15.23
2023-06-22T05:22:39.101Z,14.83
2023-06-22T05:27:42.509Z,14.02
2023-06-22T05:32:47.279Z,14.55
2023-06-22T05:37:50.798Z,13.55
2023-06-22T05:42:54.096Z,12.15
2023-06-22T05:47:58.842Z,12.02
2023-06-22T05:53:02.346Z,12.23
2023-06-22T05:58:05.778Z,13.95
2023-06-22T06:03:11.557Z,14.05
2023-06-22T06:08:16.513Z,9.65
2023-06-22T06:13:19.878Z,10.77
2023-06-22T06:18:24.616Z,10.63
2023-06-22T06:23:28.049Z,8.77
2023-06-22T06:28:31.543Z,9.75
2023-06-22T06:33:36.617Z,8.88
2023-06-22T06:38:39.880Z,10.00
2023-06-22T06:43:44.263Z,9.45
2023-06-22T06:48:49.482Z,8.45
2023-06-22T06:53:52.763Z,10.70
2023-06-22T06:58:56.680Z,8.68
2023-06-22T07:04:01.521Z,8.13
2023-06-22T07:09:05.302Z,8.40
2023-06-22T07:14:08.878Z,7.00
2023-06-22T07:19:14.156Z,11.13
2023-06-22T07:24:17.452Z,8.73
2023-06-22T07:29:23.357Z,5.88
2023-06-22T07:34:28.170Z,6.00
2023-06-22T07:39:31.514Z,8.10
2023-06-22T07:44:35.118Z,8.63
2023-06-22T07:49:39.973Z,6.28
2023-06-22T07:54:43.363Z,7.15
2023-06-22T07:59:46.915Z,8.02
2023-06-22T08:04:51.937Z,7.55
2023-06-22T08:09:55.364Z,5.90
2023-06-22T08:14:58.981Z,7.03
2023-06-22T08:20:07.034Z,5.85
2023-06-22T08:25:10.823Z,6.43
2023-06-22T08:30:14.425Z,7.47
2023-06-22T08:35:19.199Z,6.85
2023-06-22T08:40:22.601Z,8.90
2023-06-22T08:45:27.281Z,11.25
2023-06-22T08:50:32.974Z,7.97
2023-06-22T08:55:36.469Z,8.88
2023-06-22T09:00:39.923Z,8.60
2023-06-22T09:05:44.850Z,9.80
2023-06-22T09:10:48.235Z,6.20
2023-06-22T09:15:51.783Z,8.70
2023-06-22T09:20:56.364Z,7.15
2023-06-22T09:25:59.749Z,10.45
2023-06-22T09:31:03.166Z,9.32
2023-06-22T09:36:08.701Z,10.65
2023-06-22T09:41:12.008Z,10.10
2023-06-22T09:46:15.349Z,7.15
2023-06-22T09:51:21.109Z,11.30
2023-06-22T09:56:24.490Z,11.82
2023-06-22T10:01:27.961Z,9.70
2023-06-22T10:06:32.628Z,12.88
2023-06-22T10:11:36.317Z,9.93
2023-06-22T10:16:39.643Z,12.65
2023-06-22T10:21:44.470Z,10.32
2023-06-22T10:26:48.028Z,11.10
2023-06-22T10:31:51.552Z,13.70
2023-06-22T10:36:56.239Z,9.98
2023-06-22T10:41:59.633Z,12.77
2023-06-22T10:47:02.934Z,13.30
2023-06-22T10:52:08.371Z,9.60
2023-06-22T10:57:11.767Z,9.02
2023-06-22T11:02:15.095Z,12.77
2023-06-22T11:07:19.976Z,11.50
2023-06-22T11:12:23.765Z,12.90
2023-06-22T11:17:27.178Z,15.43
2023-06-22T11:22:34.762Z,10.63
2023-06-22T11:27:38.117Z,12.20
2023-06-22T11:32:41.766Z,11.95
2023-06-22T11:37:46.662Z,13.85
2023-06-22T11:42:50.155Z,11.32
2023-06-22T11:47:53.743Z,13.40
2023-06-22T11:52:58.391Z,15.98
2023-06-22T11:58:04.438Z,16.40
2023-06-22T12:03:07.957Z,10.80
2023-06-22T12:08:13.143Z,11.55
2023-06-22T12:13:16.519Z,13.20
2023-06-22T12:18:21.870Z,12.45
2023-06-22T12:23:26.575Z,13.50
2023-06-22T12:28:30.177Z,13.77
2023-06-22T12:33:33.540Z,14.38
2023-06-22T12:38:38.171Z,11.00
2023-06-22T12:43:41.592Z,11.40
2023-06-22T12:48:44.924Z,18.35
2023-06-22T12:53:49.634Z,14.40
2023-06-22T12:58:54.258Z,13.85
2023-06-22T13:03:58.313Z,12.40
2023-06-22T13:14:09.177Z,12.48
2023-06-22T13:19:12.685Z,13.95
2023-06-22T13:24:17.576Z,12.88
2023-06-22T13:29:20.928Z,14.30
2023-06-22T13:34:24.355Z,14.27
2023-06-22T13:39:29.088Z,16.83
2023-06-22T13:44:32.480Z,12.85
2023-06-22T13:49:35.805Z,15.50
2023-06-22T13:54:40.544Z,15.50
2023-06-22T13:59:44.040Z,15.52
2023-06-22T14:04:47.381Z,15.32
2023-06-22T14:09:52.195Z,12.73
2023-06-22T14:14:55.687Z,12.45
2023-06-22T14:19:59.035Z,14.30
2023-06-22T14:25:03.830Z,15.88
2023-06-22T14:30:11.050Z,13.65
2023-06-22T14:35:14.264Z,16.08
2023-06-22T14:40:19.181Z,12.10
2023-06-22T14:45:22.520Z,13.60
2023-06-22T14:50:25.871Z,13.88
2023-06-22T14:55:30.608Z,11.13
2023-06-22T15:00:34.032Z,17.42
2023-06-22T15:05:37.210Z,10.32
2023-06-22T15:10:42.103Z,14.07
2023-06-22T15:15:45.493Z,15.25
2023-06-22T15:20:49.131Z,10.90
2023-06-22T15:25:54.378Z,16.85
2023-06-22T15:30:57.868Z,14.52
2023-06-22T15:36:04.960Z,14.98
2023-06-22T15:41:10.099Z,14.93
2023-06-22T15:46:13.598Z,15.27
2023-06-22T15:51:16.892Z,13.90
2023-06-22T15:56:21.685Z,14.90
2023-06-22T16:01:25.570Z,12.40
2023-06-22T16:06:28.937Z,11.70
2023-06-22T16:11:33.897Z,10.00
2023-06-22T16:16:37.231Z,12.85
2023-06-22T16:21:40.645Z,10.00
2023-06-22T16:26:45.611Z,13.50
2023-06-22T16:31:50.018Z,14.27
2023-06-22T16:36:53.672Z,13.23
2023-06-22T16:41:58.366Z,12.65
2023-06-22T16:47:03.414Z,14.02
2023-06-22T16:52:07.158Z,15.18
2023-06-22T16:57:12.956Z,15.13
2023-06-22T17:02:18.905Z,11.77
2023-06-22T17:07:22.885Z,14.02
2023-06-22T17:12:27.760Z,10.50
2023-06-22T17:17:31.528Z,10.90
2023-06-22T17:22:37.000Z,11.35
2023-06-22T17:27:41.721Z,14.68
2023-06-22T17:32:47.831Z,13.45
2023-06-22T17:37:53.005Z,15.55
2023-06-22T17:43:04.947Z,10.07
2023-06-22T17:48:10.106Z,11.77
2023-06-22T17:53:13.844Z,13.10
2023-06-22T17:58:18.666Z,15.93
2023-06-22T18:03:25.821Z,10.15
2023-06-22T18:08:30.101Z,13.32
2023-06-22T18:13:35.570Z,15.18
2023-06-22T18:18:40.312Z,13.48
2023-06-22T18:23:44.380Z,10.98
2023-06-22T18:28:49.889Z,11.52
2023-06-22T18:33:54.239Z,12.60
2023-06-22T18:39:00.657Z,10.57
2023-06-22T18:44:05.916Z,12.13
2023-06-22T18:49:16.090Z,10.18
2023-06-22T18:54:25.250Z,10.55
2023-06-22T18:59:46.358Z,15.50
2023-06-22T19:04:49.750Z,12.32
2023-06-22T19:10:08.152Z,13.10
2023-06-22T19:15:13.849Z,11.75
2023-06-22T19:20:20.318Z,11.23
2023-06-22T19:25:24.856Z,9.83
2023-06-22T19:30:30.382Z,11.77
2023-06-22T19:35:34.803Z,8.27
2023-06-22T19:40:41.073Z,10.25
2023-06-22T19:45:46.237Z,8.90
2023-06-22T19:50:49.451Z,6.90
2023-06-22T19:55:52.831Z,9.50
2023-06-22T20:00:57.936Z,7.07
2023-06-22T20:06:10.678Z,8.30
2023-06-22T20:11:14.936Z,8.23
2023-06-22T20:16:20.330Z,7.83
2023-06-22T20:21:26.218Z,6.40
2023-06-22T20:26:39.327Z,10.60
2023-06-22T20:31:44.040Z,8.97
2023-06-22T20:36:47.515Z,11.60
2023-06-22T20:41:50.875Z,8.47
2023-06-22T20:46:56.180Z,8.67
2023-06-22T20:52:04.974Z,11.67
2023-06-22T20:57:08.441Z,12.07
2023-06-22T21:02:13.281Z,10.43
2023-06-22T21:07:17.304Z,7.87
2023-06-22T21:12:20.834Z,9.87
2023-06-22T21:17:26.887Z,10.53
2023-06-22T21:22:32.639Z,7.57
2023-06-22T21:27:36.089Z,8.13
2023-06-22T21:32:41.742Z,8.97
2023-06-22T21:37:45.938Z,7.10
2023-06-22T21:42:50.868Z,7.60
2023-06-22T21:47:55.547Z,7.57
2023-06-22T21:53:02.654Z,8.83
2023-06-22T21:58:06.021Z,7.83
2023-06-22T22:03:10.939Z,5.53
2023-06-22T22:08:14.227Z,6.33
2023-06-22T22:13:18.492Z,5.87
2023-06-22T22:18:23.351Z,6.93
2023-06-22T22:23:27.123Z,6.67
2023-06-22T22:28:30.492Z,5.87
2023-06-22T22:33:37.033Z,6.77
2023-06-22T22:38:43.845Z,6.47
2023-06-22T22:43:47.178Z,5.80
2023-06-22T22:48:51.983Z,7.87
2023-06-22T22:53:55.486Z,6.30
2023-06-22T22:58:58.777Z,8.37
2023-06-22T23:04:03.594Z,6.33
2023-06-22T23:09:07.015Z,6.13
2023-06-22T23:14:10.492Z,5.90
2023-06-22T23:19:15.172Z,8.07
2023-06-22T23:24:20.235Z,4.43
2023-06-22T23:29:23.570Z,6.87
2023-06-22T23:34:29.792Z,6.17
2023-06-22T23:39:33.159Z,3.90
2023-06-22T23:44:36.497Z,3.40
2023-06-22T23:49:41.364Z,4.03
2023-06-22T23:54:44.798Z,3.53
2023-06-22T23:59:51.895Z,3.20
